sensor_id;sensor_type;location;lat;lon;timestamp;pressure;altitude;pressure_sealevel;temperature;humidity
47985;BME280;33753;52.912;-7.342;2022-12-24T00:01:01;98971.91;;;5.15;100.00
47985;BME280;33753;52.912;-7.342;2022-12-24T00:03:30;98977.13;;;5.09;100.00
47985;BME280;33753;52.912;-7.342;2022-12-24T00:06:02;98986.34;;;5.06;100.00
47985;BME280;33753;52.912;-7.342;2022-12-24T00:08:31;98981.66;;;5.00;100.00
47985;BME280;33753;52.912;-7.342;2022-12-24T00:10:59;98978.00;;;4.93;100.00
47985;BME280;33753;52.912;-7.342;2022-12-24T00:13:29;98971.31;;;4.89;100.00
47985;BME280;33753;52.912;-7.342;2022-12-24T00:15:57;98977.88;;;4.86;100.00
47985;BME280;33753;52.912;-7.342;2022-12-24T00:18:26;98991.91;;;4.80;100.00
47985;BME280;33753;52.912;-7.342;2022-12-24T00:20:54;98992.94;;;4.79;100.00
47985;BME280;33753;52.912;-7.342;2022-12-24T00:23:22;98989.59;;;4.77;100.00
47985;BME280;33753;52.912;-7.342;2022-12-24T00:25:51;98989.94;;;4.74;100.00
47985;BME280;33753;52.912;-7.342;2022-12-24T00:28:19;98987.78;;;4.69;100.00
47985;BME280;33753;52.912;-7.342;2022-12-24T00:30:49;98992.78;;;4.72;100.00
47985;BME280;33753;52.912;-7.342;2022-12-24T00:33:17;98989.78;;;4.67;100.00
47985;BME280;33753;52.912;-7.342;2022-12-24T00:35:50;98994.31;;;4.66;100.00
47985;BME280;33753;52.912;-7.342;2022-12-24T00:38:19;98996.81;;;4.68;100.00
47985;BME280;33753;52.912;-7.342;2022-12-24T00:40:47;98990.13;;;4.64;100.00
47985;BME280;33753;52.912;-7.342;2022-12-24T00:43:15;98983.94;;;4.63;100.00
47985;BME280;33753;52.912;-7.342;2022-12-24T00:45:44;98986.94;;;4.60;100.00
47985;BME280;33753;52.912;-7.342;2022-12-24T00:48:15;98993.31;;;4.59;100.00
47985;BME280;33753;52.912;-7.342;2022-12-24T00:50:44;98993.31;;;4.51;100.00
47985;BME280;33753;52.912;-7.342;2022-12-24T00:53:12;98989.13;;;4.48;100.00
47985;BME280;33753;52.912;-7.342;2022-12-24T00:55:40;98984.78;;;4.47;100.00
47985;BME280;33753;52.912;-7.342;2022-12-24T00:58:08;98987.63;;;4.46;100.00
47985;BME280;33753;52.912;-7.342;2022-12-24T01:00:36;98993.66;;;4.48;100.00
47985;BME280;33753;52.912;-7.342;2022-12-24T01:03:05;98988.81;;;4.43;100.00
47985;BME280;33753;52.912;-7.342;2022-12-24T01:05:34;98980.94;;;4.42;100.00
47985;BME280;33753;52.912;-7.342;2022-12-24T01:08:01;98993.00;;;4.38;100.00
47985;BME280;33753;52.912;-7.342;2022-12-24T01:10:30;98989.81;;;4.34;100.00
47985;BME280;33753;52.912;-7.342;2022-12-24T01:12:59;98994.31;;;4.33;100.00
47985;BME280;33753;52.912;-7.342;2022-12-24T01:15:28;98996.00;;;4.35;100.00
47985;BME280;33753;52.912;-7.342;2022-12-24T01:17:56;98990.31;;;4.29;100.00
47985;BME280;33753;52.912;-7.342;2022-12-24T01:20:24;98987.81;;;4.28;100.00
47985;BME280;33753;52.912;-7.342;2022-12-24T01:22:58;98993.66;;;4.23;100.00
47985;BME280;33753;52.912;-7.342;2022-12-24T01:25:27;98993.66;;;4.15;100.00
47985;BME280;33753;52.912;-7.342;2022-12-24T01:27:55;98993.47;;;4.08;100.00
47985;BME280;33753;52.912;-7.342;2022-12-24T01:30:23;98993.16;;;4.03;100.00
47985;BME280;33753;52.912;-7.342;2022-12-24T01:32:51;98990.66;;;4.02;100.00
47985;BME280;33753;52.912;-7.342;2022-12-24T01:35:20;98996.16;;;3.92;100.00
47985;BME280;33753;52.912;-7.342;2022-12-24T01:37:48;98998.31;;;3.96;100.00
47985;BME280;33753;52.912;-7.342;2022-12-24T01:40:18;99006.00;;;3.91;100.00
47985;BME280;33753;52.912;-7.342;2022-12-24T01:43:04;99015.88;;;3.91;100.00
47985;BME280;33753;52.912;-7.342;2022-12-24T01:45:54;99008.34;;;3.86;100.00
47985;BME280;33753;52.912;-7.342;2022-12-24T01:48:32;99004.97;;;3.84;100.00
47985;BME280;33753;52.912;-7.342;2022-12-24T01:51:02;99004.47;;;3.80;100.00
47985;BME280;33753;52.912;-7.342;2022-12-24T01:53:32;99007.97;;;3.73;100.00
47985;BME280;33753;52.912;-7.342;2022-12-24T01:56:03;99008.28;;;3.70;100.00
47985;BME280;33753;52.912;-7.342;2022-12-24T01:58:32;99008.97;;;3.72;100.00
47985;BME280;33753;52.912;-7.342;2022-12-24T02:01:05;99015.66;;;3.68;100.00
47985;BME280;33753;52.912;-7.342;2022-12-24T02:03:33;99014.78;;;3.67;100.00
47985;BME280;33753;52.912;-7.342;2022-12-24T02:06:02;99017.63;;;3.66;100.00
47985;BME280;33753;52.912;-7.342;2022-12-24T02:08:31;99018.28;;;3.59;100.00
47985;BME280;33753;52.912;-7.342;2022-12-24T02:11:13;99017.94;;;3.54;100.00
47985;BME280;33753;52.912;-7.342;2022-12-24T02:13:42;99015.25;;;3.54;100.00
47985;BME280;33753;52.912;-7.342;2022-12-24T02:16:14;99013.59;;;3.53;100.00
47985;BME280;33753;52.912;-7.342;2022-12-24T02:18:46;99004.56;;;3.54;100.00
47985;BME280;33753;52.912;-7.342;2022-12-24T02:21:34;99009.91;;;3.54;100.00
47985;BME280;33753;52.912;-7.342;2022-12-24T02:30:05;99022.31;;;3.63;100.00
47985;BME280;33753;52.912;-7.342;2022-12-24T02:32:36;99021.31;;;3.65;100.00
47985;BME280;33753;52.912;-7.342;2022-12-24T02:35:08;99017.63;;;3.66;100.00
47985;BME280;33753;52.912;-7.342;2022-12-24T02:37:38;99021.66;;;3.70;100.00
47985;BME280;33753;52.912;-7.342;2022-12-24T02:40:10;99022.69;;;3.69;100.00
47985;BME280;33753;52.912;-7.342;2022-12-24T02:42:43;99019.69;;;3.72;100.00
47985;BME280;33753;52.912;-7.342;2022-12-24T02:45:15;99010.78;;;3.71;100.00
47985;BME280;33753;52.912;-7.342;2022-12-24T02:47:44;99016.16;;;3.71;100.00
47985;BME280;33753;52.912;-7.342;2022-12-24T02:50:14;99020.00;;;3.77;100.00
47985;BME280;33753;52.912;-7.342;2022-12-24T02:52:43;99021.34;;;3.81;100.00
47985;BME280;33753;52.912;-7.342;2022-12-24T02:55:13;99023.69;;;3.84;100.00
47985;BME280;33753;52.912;-7.342;2022-12-24T02:57:49;99032.59;;;3.85;100.00
47985;BME280;33753;52.912;-7.342;2022-12-24T03:00:23;99029.91;;;3.85;100.00
47985;BME280;33753;52.912;-7.342;2022-12-24T03:03:00;99034.75;;;3.89;100.00
47985;BME280;33753;52.912;-7.342;2022-12-24T03:05:35;99033.06;;;3.88;100.00
47985;BME280;33753;52.912;-7.342;2022-12-24T03:08:08;99039.78;;;3.92;100.00
47985;BME280;33753;52.912;-7.342;2022-12-24T03:10:40;99039.78;;;3.92;100.00
47985;BME280;33753;52.912;-7.342;2022-12-24T03:13:11;99034.09;;;3.95;100.00
47985;BME280;33753;52.912;-7.342;2022-12-24T03:15:42;99033.75;;;3.98;100.00
47985;BME280;33753;52.912;-7.342;2022-12-24T03:18:13;99030.59;;;4.03;100.00
47985;BME280;33753;52.912;-7.342;2022-12-24T03:20:43;99024.06;;;4.06;100.00
47985;BME280;33753;52.912;-7.342;2022-12-24T03:23:12;99029.13;;;4.09;100.00
47985;BME280;33753;52.912;-7.342;2022-12-24T03:25:41;99028.44;;;4.15;100.00
47985;BME280;33753;52.912;-7.342;2022-12-24T03:28:11;99026.94;;;4.21;100.00
47985;BME280;33753;52.912;-7.342;2022-12-24T03:30:40;99024.09;;;4.22;100.00
47985;BME280;33753;52.912;-7.342;2022-12-24T03:33:11;99023.44;;;4.28;100.00
47985;BME280;33753;52.912;-7.342;2022-12-24T03:35:40;99014.06;;;4.32;100.00
47985;BME280;33753;52.912;-7.342;2022-12-24T03:38:08;99012.38;;;4.40;100.00
47985;BME280;33753;52.912;-7.342;2022-12-24T03:40:36;99013.72;;;4.44;100.00
47985;BME280;33753;52.912;-7.342;2022-12-24T03:43:05;99021.59;;;4.45;100.00
47985;BME280;33753;52.912;-7.342;2022-12-24T03:45:33;99023.75;;;4.50;100.00
47985;BME280;33753;52.912;-7.342;2022-12-24T03:48:01;99021.94;;;4.50;100.00
47985;BME280;33753;52.912;-7.342;2022-12-24T03:50:32;99017.41;;;4.51;100.00
47985;BME280;33753;52.912;-7.342;2022-12-24T03:53:00;99021.06;;;4.50;100.00
47985;BME280;33753;52.912;-7.342;2022-12-24T03:55:29;99018.41;;;4.50;100.00
47985;BME280;33753;52.912;-7.342;2022-12-24T03:57:57;99025.59;;;4.49;100.00
47985;BME280;33753;52.912;-7.342;2022-12-24T04:00:25;99017.41;;;4.51;100.00
47985;BME280;33753;52.912;-7.342;2022-12-24T04:02:53;99020.25;;;4.49;100.00
47985;BME280;33753;52.912;-7.342;2022-12-24T04:05:23;99020.25;;;4.49;100.00
47985;BME280;33753;52.912;-7.342;2022-12-24T04:07:52;99019.91;;;4.53;100.00
47985;BME280;33753;52.912;-7.342;2022-12-24T04:10:21;99013.72;;;4.52;100.00
47985;BME280;33753;52.912;-7.342;2022-12-24T04:12:49;99000.50;;;4.50;100.00
47985;BME280;33753;52.912;-7.342;2022-12-24T04:15:18;99019.09;;;4.52;100.00
47985;BME280;33753;52.912;-7.342;2022-12-24T04:17:46;99011.72;;;4.54;100.00
47985;BME280;33753;52.912;-7.342;2022-12-24T04:20:14;99013.91;;;4.59;100.00
47985;BME280;33753;52.912;-7.342;2022-12-24T04:22:43;99021.44;;;4.63;100.00
47985;BME280;33753;52.912;-7.342;2022-12-24T04:25:12;99018.56;;;4.65;100.00
47985;BME280;33753;52.912;-7.342;2022-12-24T04:27:41;99020.09;;;4.67;100.00
47985;BME280;33753;52.912;-7.342;2022-12-24T04:30:09;99017.06;;;4.71;100.00
47985;BME280;33753;52.912;-7.342;2022-12-24T04:32:38;99011.69;;;4.71;100.00
47985;BME280;33753;52.912;-7.342;2022-12-24T04:35:06;99020.41;;;4.73;100.00
47985;BME280;33753;52.912;-7.342;2022-12-24T04:37:35;99014.69;;;4.76;100.00
47985;BME280;33753;52.912;-7.342;2022-12-24T04:40:03;99024.25;;;4.78;100.00
47985;BME280;33753;52.912;-7.342;2022-12-24T04:42:33;99029.41;;;4.80;100.00
47985;BME280;33753;52.912;-7.342;2022-12-24T04:45:01;99023.88;;;4.81;100.00
47985;BME280;33753;52.912;-7.342;2022-12-24T04:47:29;99022.72;;;4.84;100.00
47985;BME280;33753;52.912;-7.342;2022-12-24T04:49:58;99019.03;;;4.85;100.00
47985;BME280;33753;52.912;-7.342;2022-12-24T04:52:27;99018.34;;;4.91;100.00
47985;BME280;33753;52.912;-7.342;2022-12-24T04:54:55;99016.00;;;4.96;100.00
47985;BME280;33753;52.912;-7.342;2022-12-24T04:57:23;99010.31;;;4.99;100.00
47985;BME280;33753;52.912;-7.342;2022-12-24T04:59:53;99022.34;;;5.04;100.00
47985;BME280;33753;52.912;-7.342;2022-12-24T05:02:21;99013.97;;;5.07;100.00
47985;BME280;33753;52.912;-7.342;2022-12-24T05:04:50;99010.94;;;5.10;100.00
47985;BME280;33753;52.912;-7.342;2022-12-24T05:07:18;99013.94;;;5.15;100.00
47985;BME280;33753;52.912;-7.342;2022-12-24T05:09:46;99015.63;;;5.16;100.00
47985;BME280;33753;52.912;-7.342;2022-12-24T05:12:14;99022.63;;;5.17;100.00
47985;BME280;33753;52.912;-7.342;2022-12-24T05:14:42;99018.13;;;5.17;100.00
47985;BME280;33753;52.912;-7.342;2022-12-24T05:17:12;99015.28;;;5.19;100.00
47985;BME280;33753;52.912;-7.342;2022-12-24T05:19:40;99022.28;;;5.20;100.00
47985;BME280;33753;52.912;-7.342;2022-12-24T05:22:09;99025.66;;;5.22;100.00
47985;BME280;33753;52.912;-7.342;2022-12-24T05:24:54;99026.00;;;5.19;100.00
47985;BME280;33753;52.912;-7.342;2022-12-24T05:27:40;99023.31;;;5.19;100.00
47985;BME280;33753;52.912;-7.342;2022-12-24T05:30:16;99030.19;;;5.22;100.00
47985;BME280;33753;52.912;-7.342;2022-12-24T05:32:46;99035.38;;;5.23;100.00
47985;BME280;33753;52.912;-7.342;2022-12-24T05:35:14;99039.72;;;5.24;100.00
47985;BME280;33753;52.912;-7.342;2022-12-24T05:37:56;99031.50;;;5.26;100.00
47985;BME280;33753;52.912;-7.342;2022-12-24T05:40:24;99030.66;;;5.25;100.00
47985;BME280;33753;52.912;-7.342;2022-12-24T05:42:52;99027.50;;;5.22;100.00
47985;BME280;33753;52.912;-7.342;2022-12-24T05:45:21;99030.19;;;5.22;100.00
47985;BME280;33753;52.912;-7.342;2022-12-24T05:47:50;99024.84;;;5.22;100.00
47985;BME280;33753;52.912;-7.342;2022-12-24T05:50:19;99026.66;;;5.21;100.00
47985;BME280;33753;52.912;-7.342;2022-12-24T05:52:47;99034.03;;;5.19;100.00
47985;BME280;33753;52.912;-7.342;2022-12-24T05:55:15;99032.69;;;5.23;100.00
47985;BME280;33753;52.912;-7.342;2022-12-24T05:57:43;99027.97;;;5.25;100.00
47985;BME280;33753;52.912;-7.342;2022-12-24T06:00:12;99027.81;;;5.27;100.00
47985;BME280;33753;52.912;-7.342;2022-12-24T06:02:40;99014.56;;;5.33;100.00
47985;BME280;33753;52.912;-7.342;2022-12-24T06:05:10;99019.56;;;5.36;100.00
47985;BME280;33753;52.912;-7.342;2022-12-24T06:07:39;99026.25;;;5.41;100.00
47985;BME280;33753;52.912;-7.342;2022-12-24T06:10:07;99015.81;;;5.46;100.00
47985;BME280;33753;52.912;-7.342;2022-12-24T06:12:36;99020.53;;;5.52;100.00
47985;BME280;33753;52.912;-7.342;2022-12-24T06:15:05;99012.28;;;5.53;100.00
47985;BME280;33753;52.912;-7.342;2022-12-24T06:17:33;99011.13;;;5.56;100.00
47985;BME280;33753;52.912;-7.342;2022-12-24T06:20:03;99009.09;;;5.58;100.00
47985;BME280;33753;52.912;-7.342;2022-12-24T06:22:33;99008.44;;;5.56;100.00
47985;BME280;33753;52.912;-7.342;2022-12-24T06:25:01;99004.91;;;5.56;100.00
47985;BME280;33753;52.912;-7.342;2022-12-24T06:27:29;98994.84;;;5.58;100.00
47985;BME280;33753;52.912;-7.342;2022-12-24T06:29:57;98990.13;;;5.60;100.00
47985;BME280;33753;52.912;-7.342;2022-12-24T06:32:25;98985.25;;;5.63;100.00
47985;BME280;33753;52.912;-7.342;2022-12-24T06:34:54;98983.03;;;5.67;100.00
47985;BME280;33753;52.912;-7.342;2022-12-24T06:37:22;98975.50;;;5.70;100.00
47985;BME280;33753;52.912;-7.342;2022-12-24T06:39:51;98984.19;;;5.72;100.00
47985;BME280;33753;52.912;-7.342;2022-12-24T06:42:20;98979.31;;;5.76;100.00
47985;BME280;33753;52.912;-7.342;2022-12-24T06:44:50;98991.38;;;5.80;100.00
47985;BME280;33753;52.912;-7.342;2022-12-24T06:47:18;98981.09;;;5.84;100.00
47985;BME280;33753;52.912;-7.342;2022-12-24T06:49:46;98987.78;;;5.88;100.00
47985;BME280;33753;52.912;-7.342;2022-12-24T06:52:15;98980.38;;;5.90;100.00
47985;BME280;33753;52.912;-7.342;2022-12-24T06:54:43;98987.06;;;5.94;100.00
47985;BME280;33753;52.912;-7.342;2022-12-24T06:57:13;98974.31;;;5.96;100.00
47985;BME280;33753;52.912;-7.342;2022-12-24T06:59:41;98970.31;;;6.00;100.00
47985;BME280;33753;52.912;-7.342;2022-12-24T07:02:09;98963.91;;;6.01;100.00
47985;BME280;33753;52.912;-7.342;2022-12-24T07:04:37;98960.88;;;6.04;100.00
47985;BME280;33753;52.912;-7.342;2022-12-24T07:07:06;98957.16;;;6.05;100.00
47985;BME280;33753;52.912;-7.342;2022-12-24T07:09:34;98958.34;;;6.03;100.00
47985;BME280;33753;52.912;-7.342;2022-12-24T07:12:02;98956.53;;;6.03;100.00
47985;BME280;33753;52.912;-7.342;2022-12-24T07:14:33;98955.84;;;6.01;100.00
47985;BME280;33753;52.912;-7.342;2022-12-24T07:17:01;98963.06;;;6.01;100.00
47985;BME280;33753;52.912;-7.342;2022-12-24T07:19:29;98957.72;;;6.01;100.00
47985;BME280;33753;52.912;-7.342;2022-12-24T07:21:58;98971.78;;;6.03;100.00
47985;BME280;33753;52.912;-7.342;2022-12-24T07:24:26;98959.19;;;6.03;100.00
47985;BME280;33753;52.912;-7.342;2022-12-24T07:26:54;98965.88;;;6.08;100.00
47985;BME280;33753;52.912;-7.342;2022-12-24T07:29:23;98972.25;;;6.07;100.00
47985;BME280;33753;52.912;-7.342;2022-12-24T07:31:52;98963.03;;;6.09;100.00
47985;BME280;33753;52.912;-7.342;2022-12-24T07:34:20;98963.13;;;6.16;100.00
47985;BME280;33753;52.912;-7.342;2022-12-24T07:36:49;98956.38;;;6.20;100.00
47985;BME280;33753;52.912;-7.342;2022-12-24T07:39:17;98949.75;;;6.31;100.00
47985;BME280;33753;52.912;-7.342;2022-12-24T07:41:45;98945.31;;;6.38;100.00
47985;BME280;33753;52.912;-7.342;2022-12-24T07:44:13;98949.94;;;6.44;100.00
47985;BME280;33753;52.912;-7.342;2022-12-24T07:46:41;98957.50;;;6.49;100.00
47985;BME280;33753;52.912;-7.342;2022-12-24T07:49:11;98951.56;;;6.53;100.00
47985;BME280;33753;52.912;-7.342;2022-12-24T07:51:39;98937.28;;;6.53;100.00
47985;BME280;33753;52.912;-7.342;2022-12-24T07:54:08;98941.38;;;6.49;100.00
47985;BME280;33753;52.912;-7.342;2022-12-24T07:56:36;98940.88;;;6.45;100.00
47985;BME280;33753;52.912;-7.342;2022-12-24T07:59:04;98941.44;;;6.40;100.00
47985;BME280;33753;52.912;-7.342;2022-12-24T08:01:32;98947.81;;;6.39;100.00
47985;BME280;33753;52.912;-7.342;2022-12-24T08:04:00;98945.50;;;6.36;100.00
47985;BME280;33753;52.912;-7.342;2022-12-24T08:06:30;98935.88;;;6.42;100.00
47985;BME280;33753;52.912;-7.342;2022-12-24T08:08:59;98944.41;;;6.46;100.00
47985;BME280;33753;52.912;-7.342;2022-12-24T08:11:27;98944.78;;;6.43;100.00
47985;BME280;33753;52.912;-7.342;2022-12-24T08:13:55;98957.81;;;6.46;100.00
47985;BME280;33753;52.912;-7.342;2022-12-24T08:16:24;98966.56;;;6.48;100.00
47985;BME280;33753;52.912;-7.342;2022-12-24T08:18:52;98965.38;;;6.50;100.00
47985;BME280;33753;52.912;-7.342;2022-12-24T08:21:20;98971.19;;;6.54;100.00
47985;BME280;33753;52.912;-7.342;2022-12-24T08:23:50;98967.13;;;6.58;100.00
47985;BME280;33753;52.912;-7.342;2022-12-24T08:26:18;98970.09;;;6.63;100.00
47985;BME280;33753;52.912;-7.342;2022-12-24T08:28:46;98969.75;;;6.66;100.00
47985;BME280;33753;52.912;-7.342;2022-12-24T08:31:15;98967.31;;;6.71;100.00
47985;BME280;33753;52.912;-7.342;2022-12-24T08:33:45;98959.56;;;6.77;100.00
47985;BME280;33753;52.912;-7.342;2022-12-24T08:36:14;98959.75;;;6.75;100.00
47985;BME280;33753;52.912;-7.342;2022-12-24T08:38:42;98962.06;;;6.78;100.00
47985;BME280;33753;52.912;-7.342;2022-12-24T08:41:12;98954.81;;;6.79;100.00
47985;BME280;33753;52.912;-7.342;2022-12-24T08:43:40;98946.75;;;6.79;100.00
47985;BME280;33753;52.912;-7.342;2022-12-24T08:46:08;98954.81;;;6.79;100.00
47985;BME280;33753;52.912;-7.342;2022-12-24T08:48:37;98939.34;;;6.81;100.00
47985;BME280;33753;52.912;-7.342;2022-12-24T08:51:06;98932.31;;;6.80;100.00
47985;BME280;33753;52.912;-7.342;2022-12-24T08:53:35;98934.16;;;6.79;100.00
47985;BME280;33753;52.912;-7.342;2022-12-24T08:56:03;98932.69;;;6.77;100.00
47985;BME280;33753;52.912;-7.342;2022-12-24T08:58:34;98937.69;;;6.80;100.00
47985;BME280;33753;52.912;-7.342;2022-12-24T09:01:08;98939.34;;;6.81;100.00
47985;BME280;33753;52.912;-7.342;2022-12-24T09:03:37;98930.28;;;6.82;100.00
47985;BME280;33753;52.912;-7.342;2022-12-24T09:06:06;98927.84;;;6.87;100.00
47985;BME280;33753;52.912;-7.342;2022-12-24T09:08:34;98936.59;;;6.89;100.00
47985;BME280;33753;52.912;-7.342;2022-12-24T09:11:03;98929.97;;;6.91;100.00
47985;BME280;33753;52.912;-7.342;2022-12-24T09:13:31;98938.53;;;6.95;100.00
47985;BME280;33753;52.912;-7.342;2022-12-24T09:16:01;98933.78;;;6.97;100.00
47985;BME280;33753;52.912;-7.342;2022-12-24T09:18:30;98932.19;;;7.03;100.00
47985;BME280;33753;52.912;-7.342;2022-12-24T09:20:58;98932.69;;;7.06;100.00
47985;BME280;33753;52.912;-7.342;2022-12-24T09:23:27;98920.78;;;7.16;100.00
47985;BME280;33753;52.912;-7.342;2022-12-24T09:25:55;98932.09;;;7.26;100.00
47985;BME280;33753;52.912;-7.342;2022-12-24T09:28:23;98924.94;;;7.33;100.00
47985;BME280;33753;52.912;-7.342;2022-12-24T09:30:55;98930.59;;;7.38;100.00
47985;BME280;33753;52.912;-7.342;2022-12-24T09:33:25;98930.84;;;7.43;100.00
47985;BME280;33753;52.912;-7.342;2022-12-24T09:35:53;98950.22;;;7.54;100.00
47985;BME280;33753;52.912;-7.342;2022-12-24T09:38:21;98935.09;;;7.53;100.00
47985;BME280;33753;52.912;-7.342;2022-12-24T09:40:49;98934.28;;;7.52;100.00
47985;BME280;33753;52.912;-7.342;2022-12-24T09:43:20;98933.44;;;7.52;100.00
47985;BME280;33753;52.912;-7.342;2022-12-24T09:45:50;98936.75;;;7.54;100.00
47985;BME280;33753;52.912;-7.342;2022-12-24T09:48:23;98934.47;;;7.51;100.00
47985;BME280;33753;52.912;-7.342;2022-12-24T09:50:56;98937.41;;;7.56;100.00
47985;BME280;33753;52.912;-7.342;2022-12-24T09:53:28;98932.41;;;7.53;100.00
47985;BME280;33753;52.912;-7.342;2022-12-24T09:56:03;98938.16;;;7.50;100.00
47985;BME280;33753;52.912;-7.342;2022-12-24T09:58:33;98932.00;;;7.56;100.00
47985;BME280;33753;52.912;-7.342;2022-12-24T10:01:02;98920.91;;;7.59;100.00
47985;BME280;33753;52.912;-7.342;2022-12-24T10:03:30;98924.22;;;7.61;100.00
47985;BME280;33753;52.912;-7.342;2022-12-24T10:06:03;98928.97;;;7.59;100.00
47985;BME280;33753;52.912;-7.342;2022-12-24T10:08:34;98929.59;;;7.61;100.00
47985;BME280;33753;52.912;-7.342;2022-12-24T10:11:07;98938.97;;;7.65;100.00
47985;BME280;33753;52.912;-7.342;2022-12-24T10:13:41;98937.94;;;7.66;100.00
47985;BME280;33753;52.912;-7.342;2022-12-24T10:16:13;98936.91;;;7.67;100.00
47985;BME280;33753;52.912;-7.342;2022-12-24T10:18:46;98928.41;;;7.64;100.00
47985;BME280;33753;52.912;-7.342;2022-12-24T10:21:20;98933.38;;;7.67;100.00
47985;BME280;33753;52.912;-7.342;2022-12-24T10:23:51;98930.13;;;7.71;100.00
47985;BME280;33753;52.912;-7.342;2022-12-24T10:26:24;98928.72;;;7.75;100.00
47985;BME280;33753;52.912;-7.342;2022-12-24T10:28:55;98928.53;;;7.77;100.00
47985;BME280;33753;52.912;-7.342;2022-12-24T10:31:25;98929.00;;;7.81;100.00
47985;BME280;33753;52.912;-7.342;2022-12-24T10:33:55;98930.66;;;7.82;100.00
47985;BME280;33753;52.912;-7.342;2022-12-24T10:36:26;98929.22;;;7.86;100.00
47985;BME280;33753;52.912;-7.342;2022-12-24T10:38:55;98921.16;;;7.86;100.00
47985;BME280;33753;52.912;-7.342;2022-12-24T10:41:24;98914.16;;;7.91;100.00
47985;BME280;33753;52.912;-7.342;2022-12-24T10:43:53;98908.97;;;7.90;100.00
47985;BME280;33753;52.912;-7.342;2022-12-24T10:46:22;98906.56;;;7.95;100.00
47985;BME280;33753;52.912;-7.342;2022-12-24T10:48:52;98905.16;;;7.99;100.00
47985;BME280;33753;52.912;-7.342;2022-12-24T10:51:28;98908.47;;;8.01;100.00
47985;BME280;33753;52.912;-7.342;2022-12-24T10:54:00;98902.06;;;8.02;100.00
47985;BME280;33753;52.912;-7.342;2022-12-24T10:56:37;98895.25;;;8.06;100.00
47985;BME280;33753;52.912;-7.342;2022-12-24T10:59:08;98891.97;;;8.11;100.00
47985;BME280;33753;52.912;-7.342;2022-12-24T11:01:49;98891.59;;;8.14;100.00
47985;BME280;33753;52.912;-7.342;2022-12-24T11:04:18;98886.19;;;8.14;100.00
47985;BME280;33753;52.912;-7.342;2022-12-24T11:06:52;98894.09;;;8.16;100.00
47985;BME280;33753;52.912;-7.342;2022-12-24T11:09:21;98888.06;;;8.13;100.00
47985;BME280;33753;52.912;-7.342;2022-12-24T11:11:50;98883.97;;;8.18;100.00
47985;BME280;33753;52.912;-7.342;2022-12-24T11:14:18;98883.31;;;8.16;100.00
47985;BME280;33753;52.912;-7.342;2022-12-24T11:16:48;98875.88;;;8.18;100.00
47985;BME280;33753;52.912;-7.342;2022-12-24T11:19:18;98868.81;;;8.17;100.00
47985;BME280;33753;52.912;-7.342;2022-12-24T11:21:48;98865.13;;;8.18;100.00
47985;BME280;33753;52.912;-7.342;2022-12-24T11:24:27;98889.56;;;8.23;100.00
47985;BME280;33753;52.912;-7.342;2022-12-24T11:27:21;98888.69;;;8.16;100.00
47985;BME280;33753;52.912;-7.342;2022-12-24T11:29:46;98884.16;;;8.16;100.00
47985;BME280;33753;52.912;-7.342;2022-12-24T11:32:15;98885.78;;;8.10;100.00
47985;BME280;33753;52.912;-7.342;2022-12-24T11:34:44;98896.75;;;8.09;100.00
47985;BME280;33753;52.912;-7.342;2022-12-24T11:37:13;98885.25;;;8.00;100.00
47985;BME280;33753;52.912;-7.342;2022-12-24T11:39:45;98893.41;;;7.85;100.00
47985;BME280;33753;52.912;-7.342;2022-12-24T11:42:22;98895.41;;;7.76;100.00
47985;BME280;33753;52.912;-7.342;2022-12-24T11:44:50;98889.94;;;7.70;100.00
47985;BME280;33753;52.912;-7.342;2022-12-24T11:47:28;98911.88;;;7.67;100.00
47985;BME280;33753;52.912;-7.342;2022-12-24T11:50:16;98920.00;;;7.52;100.00
47985;BME280;33753;52.912;-7.342;2022-12-24T11:52:46;98935.44;;;7.28;100.00
47985;BME280;33753;52.912;-7.342;2022-12-24T11:55:19;98930.28;;;7.12;100.00
47985;BME280;33753;52.912;-7.342;2022-12-24T11:57:52;98909.31;;;7.07;100.00
47985;BME280;33753;52.912;-7.342;2022-12-24T12:00:23;98892.72;;;6.88;100.00
47985;BME280;33753;52.912;-7.342;2022-12-24T12:02:52;98882.72;;;6.82;100.00
47985;BME280;33753;52.912;-7.342;2022-12-24T12:05:23;98876.06;;;6.78;100.00
47985;BME280;33753;52.912;-7.342;2022-12-24T12:07:54;98873.19;;;6.65;100.00
47985;BME280;33753;52.912;-7.342;2022-12-24T12:10:26;98877.47;;;6.59;100.00
47985;BME280;33753;52.912;-7.342;2022-12-24T12:12:57;98873.38;;;6.63;100.00
47985;BME280;33753;52.912;-7.342;2022-12-24T12:15:27;98848.28;;;6.56;100.00
47985;BME280;33753;52.912;-7.342;2022-12-24T12:17:57;98854.66;;;6.55;100.00
47985;BME280;33753;52.912;-7.342;2022-12-24T12:20:29;98859.13;;;6.48;100.00
47985;BME280;33753;52.912;-7.342;2022-12-24T12:23:01;98855.75;;;6.46;100.00
47985;BME280;33753;52.912;-7.342;2022-12-24T12:25:34;98867.88;;;6.42;100.00
47985;BME280;33753;52.912;-7.342;2022-12-24T12:28:06;98865.13;;;6.50;100.00
47985;BME280;33753;52.912;-7.342;2022-12-24T12:30:39;98871.06;;;6.45;100.00
47985;BME280;33753;52.912;-7.342;2022-12-24T12:33:09;98865.50;;;6.47;100.00
47985;BME280;33753;52.912;-7.342;2022-12-24T12:35:39;98856.13;;;6.43;100.00
47985;BME280;33753;52.912;-7.342;2022-12-24T12:38:10;98859.50;;;6.45;100.00
47985;BME280;33753;52.912;-7.342;2022-12-24T12:40:45;98848.25;;;6.41;100.00
47985;BME280;33753;52.912;-7.342;2022-12-24T12:43:21;98843.56;;;6.43;100.00
47985;BME280;33753;52.912;-7.342;2022-12-24T12:45:54;98837.34;;;6.43;100.00
47985;BME280;33753;52.912;-7.342;2022-12-24T12:48:41;98825.59;;;6.44;100.00
47985;BME280;33753;52.912;-7.342;2022-12-24T12:51:11;98820.22;;;6.44;100.00
47985;BME280;33753;52.912;-7.342;2022-12-24T12:53:52;98817.72;;;6.42;100.00
47985;BME280;33753;52.912;-7.342;2022-12-24T12:56:25;98830.66;;;6.38;100.00
47985;BME280;33753;52.912;-7.342;2022-12-24T12:58:57;98820.59;;;6.40;100.00
47985;BME280;33753;52.912;-7.342;2022-12-24T13:01:32;98805.47;;;6.39;100.00
47985;BME280;33753;52.912;-7.342;2022-12-24T13:04:20;98828.66;;;6.40;100.00
47985;BME280;33753;52.912;-7.342;2022-12-24T13:12:30;98841.69;;;6.44;100.00
47985;BME280;33753;52.912;-7.342;2022-12-24T13:15:09;98820.78;;;6.39;100.00
47985;BME280;33753;52.912;-7.342;2022-12-24T13:17:47;98827.59;;;6.42;100.00